EGAA/BFS METAR and TAF weather

Enter ICAO airport designator
Station Type Date Time Source
EGAA METAR 2022/01/26 07:20 UTC NOAA

EGAA 260720Z AUTO 23008KT 200V260 9999 OVC010 05/04 Q1029


Station Type Date Time Source
EGAA Decoded METAR 2022/01/26 07:20 UTC NOAA

Belfast / Aldergrove Airport, United Kingdom (EGAA) 54-39N 006-13W 0M
Jan 26, 2022 - 02:20 AM EST / 2022.01.26 0720 UTC
Wind: from the SW (230 degrees) at 9 MPH (8 KT) (direction variable):0
Visibility: greater than 7 mile(s):0
Sky conditions: overcast
Temperature: 41 F (5 C)
Dew Point: 39 F (4 C)
Relative Humidity: 93%
Pressure (altimeter): 30.39 in. Hg (1029 hPa)
ob: EGAA 260720Z AUTO 23008KT 200V260 9999 OVC010 05/04 Q1029
cycle: 7

Station Type Date Time Source
EGAA TAF 2022/01/26 06:06 UTC NOAA

TAF TAF EGAA 260456Z 2606/2706 22009KT 9999 FEW015 SCT020
TEMPO 2606/2610 7000 BKN008 PROB30
TEMPO 2606/2610 3000 BR BKN004 PROB40 2610/2616 BKN014
BECMG 2611/2614 23018G28KT
BECMG 2616/2619 BKN008 PROB30
TEMPO 2616/2619 6000 -RADZ
TEMPO 2619/2623 7000 -RA PROB40
TEMPO 2619/2623 4000 RADZ BKN004
BECMG 2622/2701 27012KT SCT025

Example: see airport list